sensor_id;sensor_type;location;lat;lon;timestamp;P1;durP1;ratioP1;P2;durP2;ratioP2
10565;SDS011;5331;48.148;16.326;2023-07-16T00:02:10;5.75;;;5.25;;
10565;SDS011;5331;48.148;16.326;2023-07-16T00:04:37;6.38;;;5.78;;
10565;SDS011;5331;48.148;16.326;2023-07-16T00:07:05;7.35;;;6.00;;
10565;SDS011;5331;48.148;16.326;2023-07-16T00:09:32;6.28;;;5.53;;
10565;SDS011;5331;48.148;16.326;2023-07-16T00:11:59;7.13;;;6.00;;
10565;SDS011;5331;48.148;16.326;2023-07-16T00:14:26;6.68;;;5.90;;
10565;SDS011;5331;48.148;16.326;2023-07-16T00:16:53;7.13;;;6.40;;
10565;SDS011;5331;48.148;16.326;2023-07-16T00:19:20;6.65;;;5.97;;
10565;SDS011;5331;48.148;16.326;2023-07-16T00:21:47;6.32;;;5.68;;
10565;SDS011;5331;48.148;16.326;2023-07-16T00:24:15;6.60;;;5.97;;
10565;SDS011;5331;48.148;16.326;2023-07-16T00:26:42;6.88;;;6.18;;
10565;SDS011;5331;48.148;16.326;2023-07-16T00:29:09;6.30;;;5.70;;
10565;SDS011;5331;48.148;16.326;2023-07-16T00:31:36;6.20;;;5.60;;
10565;SDS011;5331;48.148;16.326;2023-07-16T00:34:02;8.98;;;6.00;;
10565;SDS011;5331;48.148;16.326;2023-07-16T00:36:29;7.18;;;5.95;;
10565;SDS011;5331;48.148;16.326;2023-07-16T00:38:56;8.40;;;5.40;;
10565;SDS011;5331;48.148;16.326;2023-07-16T00:41:24;6.55;;;5.90;;
10565;SDS011;5331;48.148;16.326;2023-07-16T00:43:51;6.50;;;5.70;;
10565;SDS011;5331;48.148;16.326;2023-07-16T00:46:19;6.53;;;5.93;;
10565;SDS011;5331;48.148;16.326;2023-07-16T00:48:46;6.50;;;5.68;;
10565;SDS011;5331;48.148;16.326;2023-07-16T00:51:13;7.18;;;5.82;;
10565;SDS011;5331;48.148;16.326;2023-07-16T00:53:40;6.47;;;5.88;;
10565;SDS011;5331;48.148;16.326;2023-07-16T00:56:08;7.78;;;6.38;;
10565;SDS011;5331;48.148;16.326;2023-07-16T00:58:37;8.57;;;6.07;;
10565;SDS011;5331;48.148;16.326;2023-07-16T01:01:04;6.25;;;5.65;;
10565;SDS011;5331;48.148;16.326;2023-07-16T01:03:31;6.38;;;5.80;;
10565;SDS011;5331;48.148;16.326;2023-07-16T01:06:00;6.35;;;5.80;;
10565;SDS011;5331;48.148;16.326;2023-07-16T01:08:32;6.43;;;5.82;;
10565;SDS011;5331;48.148;16.326;2023-07-16T01:11:01;6.10;;;5.60;;
10565;SDS011;5331;48.148;16.326;2023-07-16T01:13:29;6.13;;;5.53;;
10565;SDS011;5331;48.148;16.326;2023-07-16T01:15:58;5.90;;;5.30;;
10565;SDS011;5331;48.148;16.326;2023-07-16T01:18:24;6.07;;;5.50;;
10565;SDS011;5331;48.148;16.326;2023-07-16T01:20:51;5.82;;;5.32;;
10565;SDS011;5331;48.148;16.326;2023-07-16T01:23:45;6.18;;;5.50;;
10565;SDS011;5331;48.148;16.326;2023-07-16T01:26:39;6.00;;;5.40;;
10565;SDS011;5331;48.148;16.326;2023-07-16T01:29:42;6.30;;;5.60;;
10565;SDS011;5331;48.148;16.326;2023-07-16T01:32:10;6.47;;;5.80;;
10565;SDS011;5331;48.148;16.326;2023-07-16T01:34:38;6.40;;;5.80;;
10565;SDS011;5331;48.148;16.326;2023-07-16T01:37:06;6.28;;;5.68;;
10565;SDS011;5331;48.148;16.326;2023-07-16T01:39:33;6.50;;;5.90;;
10565;SDS011;5331;48.148;16.326;2023-07-16T01:42:00;6.53;;;6.00;;
10565;SDS011;5331;48.148;16.326;2023-07-16T01:44:27;6.57;;;5.32;;
10565;SDS011;5331;48.148;16.326;2023-07-16T01:47:04;7.07;;;5.60;;
10565;SDS011;5331;48.148;16.326;2023-07-16T01:49:33;7.13;;;6.03;;
10565;SDS011;5331;48.148;16.326;2023-07-16T01:52:00;6.05;;;5.50;;
10565;SDS011;5331;48.148;16.326;2023-07-16T01:54:28;6.38;;;5.88;;
10565;SDS011;5331;48.148;16.326;2023-07-16T01:56:55;5.68;;;5.20;;
10565;SDS011;5331;48.148;16.326;2023-07-16T01:59:22;6.47;;;5.88;;
10565;SDS011;5331;48.148;16.326;2023-07-16T02:01:49;6.20;;;5.70;;
10565;SDS011;5331;48.148;16.326;2023-07-16T02:04:17;6.53;;;5.88;;
10565;SDS011;5331;48.148;16.326;2023-07-16T02:06:44;5.80;;;5.40;;
10565;SDS011;5331;48.148;16.326;2023-07-16T02:09:13;6.22;;;5.68;;
10565;SDS011;5331;48.148;16.326;2023-07-16T02:11:40;7.18;;;5.68;;
10565;SDS011;5331;48.148;16.326;2023-07-16T02:14:06;6.47;;;5.72;;
10565;SDS011;5331;48.148;16.326;2023-07-16T02:16:33;6.57;;;5.90;;
10565;SDS011;5331;48.148;16.326;2023-07-16T02:19:00;6.65;;;6.13;;
10565;SDS011;5331;48.148;16.326;2023-07-16T02:21:29;6.25;;;5.75;;
10565;SDS011;5331;48.148;16.326;2023-07-16T02:23:55;6.78;;;6.18;;
10565;SDS011;5331;48.148;16.326;2023-07-16T02:26:22;6.65;;;6.05;;
10565;SDS011;5331;48.148;16.326;2023-07-16T02:28:49;6.82;;;6.05;;
10565;SDS011;5331;48.148;16.326;2023-07-16T02:31:16;6.60;;;6.00;;
10565;SDS011;5331;48.148;16.326;2023-07-16T02:33:43;6.75;;;6.10;;
10565;SDS011;5331;48.148;16.326;2023-07-16T02:36:10;7.70;;;6.55;;
10565;SDS011;5331;48.148;16.326;2023-07-16T02:38:38;7.40;;;6.70;;
10565;SDS011;5331;48.148;16.326;2023-07-16T02:41:05;7.05;;;6.45;;
10565;SDS011;5331;48.148;16.326;2023-07-16T02:43:32;7.20;;;6.55;;
10565;SDS011;5331;48.148;16.326;2023-07-16T02:45:59;7.00;;;6.30;;
10565;SDS011;5331;48.148;16.326;2023-07-16T02:48:26;7.50;;;5.90;;
10565;SDS011;5331;48.148;16.326;2023-07-16T02:50:53;7.68;;;6.85;;
10565;SDS011;5331;48.148;16.326;2023-07-16T02:53:19;6.68;;;6.07;;
10565;SDS011;5331;48.148;16.326;2023-07-16T02:55:48;7.68;;;6.85;;
10565;SDS011;5331;48.148;16.326;2023-07-16T02:58:14;8.93;;;6.60;;
10565;SDS011;5331;48.148;16.326;2023-07-16T03:00:41;6.65;;;6.10;;
10565;SDS011;5331;48.148;16.326;2023-07-16T03:03:08;6.72;;;5.95;;
10565;SDS011;5331;48.148;16.326;2023-07-16T03:05:35;6.50;;;6.00;;
10565;SDS011;5331;48.148;16.326;2023-07-16T03:08:02;6.65;;;6.15;;
10565;SDS011;5331;48.148;16.326;2023-07-16T03:10:29;7.55;;;6.85;;
10565;SDS011;5331;48.148;16.326;2023-07-16T03:12:58;7.32;;;6.28;;
10565;SDS011;5331;48.148;16.326;2023-07-16T03:15:24;7.45;;;6.75;;
10565;SDS011;5331;48.148;16.326;2023-07-16T03:17:51;8.32;;;6.68;;
10565;SDS011;5331;48.148;16.326;2023-07-16T03:20:18;7.88;;;6.93;;
10565;SDS011;5331;48.148;16.326;2023-07-16T03:22:45;6.70;;;6.00;;
10565;SDS011;5331;48.148;16.326;2023-07-16T03:25:12;7.57;;;6.88;;
10565;SDS011;5331;48.148;16.326;2023-07-16T03:27:39;7.43;;;6.55;;
10565;SDS011;5331;48.148;16.326;2023-07-16T03:30:08;7.05;;;6.35;;
10565;SDS011;5331;48.148;16.326;2023-07-16T03:32:35;7.30;;;6.65;;
10565;SDS011;5331;48.148;16.326;2023-07-16T03:35:02;7.25;;;6.57;;
10565;SDS011;5331;48.148;16.326;2023-07-16T03:37:30;7.80;;;6.78;;
10565;SDS011;5331;48.148;16.326;2023-07-16T03:40:11;7.68;;;6.97;;
10565;SDS011;5331;48.148;16.326;2023-07-16T03:42:39;7.90;;;7.10;;
10565;SDS011;5331;48.148;16.326;2023-07-16T03:45:08;7.65;;;6.95;;
10565;SDS011;5331;48.148;16.326;2023-07-16T03:47:36;8.13;;;7.43;;
10565;SDS011;5331;48.148;16.326;2023-07-16T03:50:03;7.72;;;7.00;;
10565;SDS011;5331;48.148;16.326;2023-07-16T03:52:30;8.52;;;7.80;;
10565;SDS011;5331;48.148;16.326;2023-07-16T03:54:57;8.15;;;7.35;;
10565;SDS011;5331;48.148;16.326;2023-07-16T03:57:25;8.90;;;7.45;;
10565;SDS011;5331;48.148;16.326;2023-07-16T03:59:53;7.50;;;6.80;;
10565;SDS011;5331;48.148;16.326;2023-07-16T04:02:23;8.05;;;7.32;;
10565;SDS011;5331;48.148;16.326;2023-07-16T04:04:49;7.63;;;7.00;;
10565;SDS011;5331;48.148;16.326;2023-07-16T04:07:17;7.65;;;6.95;;
10565;SDS011;5331;48.148;16.326;2023-07-16T04:09:44;8.20;;;7.50;;
10565;SDS011;5331;48.148;16.326;2023-07-16T04:12:11;8.30;;;7.05;;
10565;SDS011;5331;48.148;16.326;2023-07-16T04:14:37;7.88;;;7.25;;
10565;SDS011;5331;48.148;16.326;2023-07-16T04:17:04;7.93;;;7.13;;
10565;SDS011;5331;48.148;16.326;2023-07-16T04:19:33;8.65;;;7.88;;
10565;SDS011;5331;48.148;16.326;2023-07-16T04:22:00;8.32;;;7.57;;
10565;SDS011;5331;48.148;16.326;2023-07-16T04:24:27;9.32;;;8.15;;
10565;SDS011;5331;48.148;16.326;2023-07-16T04:26:54;8.73;;;8.00;;
10565;SDS011;5331;48.148;16.326;2023-07-16T04:29:21;9.10;;;8.30;;
10565;SDS011;5331;48.148;16.326;2023-07-16T04:31:48;8.20;;;7.55;;
10565;SDS011;5331;48.148;16.326;2023-07-16T04:34:15;8.50;;;7.80;;
10565;SDS011;5331;48.148;16.326;2023-07-16T04:36:44;8.65;;;7.85;;
10565;SDS011;5331;48.148;16.326;2023-07-16T04:39:11;9.07;;;8.18;;
10565;SDS011;5331;48.148;16.326;2023-07-16T04:41:37;10.40;;;9.50;;
10565;SDS011;5331;48.148;16.326;2023-07-16T04:44:04;10.10;;;9.10;;
10565;SDS011;5331;48.148;16.326;2023-07-16T04:46:31;9.68;;;8.88;;
10565;SDS011;5331;48.148;16.326;2023-07-16T04:48:58;9.73;;;8.85;;
10565;SDS011;5331;48.148;16.326;2023-07-16T04:51:25;9.90;;;9.00;;
10565;SDS011;5331;48.148;16.326;2023-07-16T04:53:53;9.65;;;8.65;;
10565;SDS011;5331;48.148;16.326;2023-07-16T04:56:21;9.02;;;8.00;;
10565;SDS011;5331;48.148;16.326;2023-07-16T04:58:47;9.20;;;8.32;;
10565;SDS011;5331;48.148;16.326;2023-07-16T05:01:14;9.98;;;8.38;;
10565;SDS011;5331;48.148;16.326;2023-07-16T05:03:41;8.48;;;7.70;;
10565;SDS011;5331;48.148;16.326;2023-07-16T05:06:08;7.95;;;7.13;;
10565;SDS011;5331;48.148;16.326;2023-07-16T05:08:35;7.88;;;7.10;;
10565;SDS011;5331;48.148;16.326;2023-07-16T05:11:03;7.75;;;7.05;;
10565;SDS011;5331;48.148;16.326;2023-07-16T05:13:30;8.18;;;7.40;;
10565;SDS011;5331;48.148;16.326;2023-07-16T05:15:57;7.78;;;7.07;;
10565;SDS011;5331;48.148;16.326;2023-07-16T05:18:24;7.57;;;6.93;;
10565;SDS011;5331;48.148;16.326;2023-07-16T05:20:51;7.95;;;7.35;;
10565;SDS011;5331;48.148;16.326;2023-07-16T05:23:18;8.73;;;7.38;;
10565;SDS011;5331;48.148;16.326;2023-07-16T05:25:45;7.40;;;6.80;;
10565;SDS011;5331;48.148;16.326;2023-07-16T05:28:14;7.97;;;6.78;;
10565;SDS011;5331;48.148;16.326;2023-07-16T05:30:43;8.02;;;7.20;;
10565;SDS011;5331;48.148;16.326;2023-07-16T05:33:10;7.60;;;6.90;;
10565;SDS011;5331;48.148;16.326;2023-07-16T05:35:37;7.70;;;6.95;;
10565;SDS011;5331;48.148;16.326;2023-07-16T05:38:05;7.13;;;6.50;;
10565;SDS011;5331;48.148;16.326;2023-07-16T05:40:32;7.20;;;6.60;;
10565;SDS011;5331;48.148;16.326;2023-07-16T05:42:59;7.05;;;6.45;;
10565;SDS011;5331;48.148;16.326;2023-07-16T05:45:27;6.85;;;6.35;;
10565;SDS011;5331;48.148;16.326;2023-07-16T05:47:55;6.13;;;5.70;;
10565;SDS011;5331;48.148;16.326;2023-07-16T05:50:22;5.97;;;5.57;;
10565;SDS011;5331;48.148;16.326;2023-07-16T05:52:49;6.05;;;5.55;;
10565;SDS011;5331;48.148;16.326;2023-07-16T05:55:16;6.20;;;5.53;;
10565;SDS011;5331;48.148;16.326;2023-07-16T05:57:43;5.53;;;5.10;;
10565;SDS011;5331;48.148;16.326;2023-07-16T06:00:10;6.60;;;5.88;;
10565;SDS011;5331;48.148;16.326;2023-07-16T06:02:39;5.95;;;5.45;;
10565;SDS011;5331;48.148;16.326;2023-07-16T06:05:06;6.10;;;5.25;;
10565;SDS011;5331;48.148;16.326;2023-07-16T06:07:34;7.03;;;5.25;;
10565;SDS011;5331;48.148;16.326;2023-07-16T06:10:00;6.70;;;6.10;;
10565;SDS011;5331;48.148;16.326;2023-07-16T06:12:28;6.20;;;5.63;;
10565;SDS011;5331;48.148;16.326;2023-07-16T06:14:54;6.60;;;6.10;;
10565;SDS011;5331;48.148;16.326;2023-07-16T06:17:21;6.20;;;5.70;;
10565;SDS011;5331;48.148;16.326;2023-07-16T06:19:50;6.18;;;5.60;;
10565;SDS011;5331;48.148;16.326;2023-07-16T06:22:16;6.70;;;6.10;;
10565;SDS011;5331;48.148;16.326;2023-07-16T06:24:43;6.35;;;5.80;;
10565;SDS011;5331;48.148;16.326;2023-07-16T06:27:10;6.22;;;5.70;;
10565;SDS011;5331;48.148;16.326;2023-07-16T06:29:37;6.60;;;6.05;;
10565;SDS011;5331;48.148;16.326;2023-07-16T06:32:04;6.88;;;6.28;;
10565;SDS011;5331;48.148;16.326;2023-07-16T06:34:32;6.47;;;5.80;;
10565;SDS011;5331;48.148;16.326;2023-07-16T06:37:00;6.70;;;6.10;;
10565;SDS011;5331;48.148;16.326;2023-07-16T06:39:27;6.88;;;6.10;;
10565;SDS011;5331;48.148;16.326;2023-07-16T06:41:54;6.65;;;6.05;;
10565;SDS011;5331;48.148;16.326;2023-07-16T06:44:21;7.05;;;6.35;;
10565;SDS011;5331;48.148;16.326;2023-07-16T06:46:48;6.57;;;6.00;;
10565;SDS011;5331;48.148;16.326;2023-07-16T06:49:15;6.93;;;6.28;;
10565;SDS011;5331;48.148;16.326;2023-07-16T06:51:42;6.30;;;5.63;;
10565;SDS011;5331;48.148;16.326;2023-07-16T06:54:10;6.90;;;6.25;;
10565;SDS011;5331;48.148;16.326;2023-07-16T06:56:37;6.78;;;5.90;;
10565;SDS011;5331;48.148;16.326;2023-07-16T06:59:04;6.40;;;5.80;;
10565;SDS011;5331;48.148;16.326;2023-07-16T07:01:31;6.75;;;5.60;;
10565;SDS011;5331;48.148;16.326;2023-07-16T07:03:58;5.95;;;5.50;;
10565;SDS011;5331;48.148;16.326;2023-07-16T07:06:25;6.20;;;5.70;;
10565;SDS011;5331;48.148;16.326;2023-07-16T07:08:52;5.90;;;5.40;;
10565;SDS011;5331;48.148;16.326;2023-07-16T07:11:20;5.70;;;5.15;;
10565;SDS011;5331;48.148;16.326;2023-07-16T07:13:47;5.63;;;5.07;;
10565;SDS011;5331;48.148;16.326;2023-07-16T07:16:15;5.32;;;4.82;;
10565;SDS011;5331;48.148;16.326;2023-07-16T07:18:42;5.28;;;4.88;;
10565;SDS011;5331;48.148;16.326;2023-07-16T07:21:09;5.05;;;4.65;;
10565;SDS011;5331;48.148;16.326;2023-07-16T07:23:36;5.15;;;4.65;;
10565;SDS011;5331;48.148;16.326;2023-07-16T07:26:03;5.32;;;4.90;;
10565;SDS011;5331;48.148;16.326;2023-07-16T07:28:31;5.20;;;4.80;;
10565;SDS011;5331;48.148;16.326;2023-07-16T07:30:59;4.82;;;4.53;;
10565;SDS011;5331;48.148;16.326;2023-07-16T07:33:26;5.53;;;4.57;;
10565;SDS011;5331;48.148;16.326;2023-07-16T07:35:53;4.63;;;4.22;;
10565;SDS011;5331;48.148;16.326;2023-07-16T07:38:20;5.10;;;4.53;;
10565;SDS011;5331;48.148;16.326;2023-07-16T07:40:47;6.93;;;4.50;;
10565;SDS011;5331;48.148;16.326;2023-07-16T07:43:14;4.95;;;4.20;;
10565;SDS011;5331;48.148;16.326;2023-07-16T07:45:42;4.50;;;4.20;;
10565;SDS011;5331;48.148;16.326;2023-07-16T07:48:10;4.63;;;4.22;;
10565;SDS011;5331;48.148;16.326;2023-07-16T07:50:36;5.25;;;4.55;;
10565;SDS011;5331;48.148;16.326;2023-07-16T07:53:04;4.70;;;4.30;;
10565;SDS011;5331;48.148;16.326;2023-07-16T07:55:32;4.47;;;4.07;;
10565;SDS011;5331;48.148;16.326;2023-07-16T07:57:59;4.88;;;4.38;;
10565;SDS011;5331;48.148;16.326;2023-07-16T08:00:26;4.70;;;4.30;;
10565;SDS011;5331;48.148;16.326;2023-07-16T08:02:55;4.30;;;4.10;;
10565;SDS011;5331;48.148;16.326;2023-07-16T08:05:22;5.13;;;4.68;;
10565;SDS011;5331;48.148;16.326;2023-07-16T08:07:49;4.60;;;4.25;;
10565;SDS011;5331;48.148;16.326;2023-07-16T08:10:17;4.60;;;4.30;;
10565;SDS011;5331;48.148;16.326;2023-07-16T08:12:44;4.80;;;4.28;;
10565;SDS011;5331;48.148;16.326;2023-07-16T08:15:11;4.57;;;4.18;;
10565;SDS011;5331;48.148;16.326;2023-07-16T08:17:39;4.40;;;4.10;;
10565;SDS011;5331;48.148;16.326;2023-07-16T08:20:09;4.47;;;4.10;;
10565;SDS011;5331;48.148;16.326;2023-07-16T08:22:36;4.75;;;4.35;;
10565;SDS011;5331;48.148;16.326;2023-07-16T08:25:04;4.25;;;3.95;;
10565;SDS011;5331;48.148;16.326;2023-07-16T08:27:32;4.35;;;3.90;;
10565;SDS011;5331;48.148;16.326;2023-07-16T08:29:59;4.22;;;3.90;;
10565;SDS011;5331;48.148;16.326;2023-07-16T08:32:25;4.95;;;4.05;;
10565;SDS011;5331;48.148;16.326;2023-07-16T08:34:52;4.20;;;3.80;;
10565;SDS011;5331;48.148;16.326;2023-07-16T08:37:21;4.20;;;3.90;;
10565;SDS011;5331;48.148;16.326;2023-07-16T08:39:51;4.20;;;3.80;;
10565;SDS011;5331;48.148;16.326;2023-07-16T08:42:18;3.83;;;3.53;;
10565;SDS011;5331;48.148;16.326;2023-07-16T08:44:46;3.97;;;3.75;;
10565;SDS011;5331;48.148;16.326;2023-07-16T08:47:15;4.20;;;3.90;;
10565;SDS011;5331;48.148;16.326;2023-07-16T08:49:42;3.97;;;3.67;;
10565;SDS011;5331;48.148;16.326;2023-07-16T08:52:21;3.85;;;3.53;;
10565;SDS011;5331;48.148;16.326;2023-07-16T08:54:48;3.85;;;3.65;;
10565;SDS011;5331;48.148;16.326;2023-07-16T08:57:15;4.68;;;3.80;;
10565;SDS011;5331;48.148;16.326;2023-07-16T08:59:42;4.30;;;3.90;;
10565;SDS011;5331;48.148;16.326;2023-07-16T09:02:10;4.00;;;3.70;;
10565;SDS011;5331;48.148;16.326;2023-07-16T09:04:38;3.80;;;3.60;;
10565;SDS011;5331;48.148;16.326;2023-07-16T09:07:05;4.68;;;3.70;;
10565;SDS011;5331;48.148;16.326;2023-07-16T09:09:34;4.05;;;3.75;;
10565;SDS011;5331;48.148;16.326;2023-07-16T09:12:01;3.70;;;3.50;;
10565;SDS011;5331;48.148;16.326;2023-07-16T09:14:28;3.60;;;3.40;;
10565;SDS011;5331;48.148;16.326;2023-07-16T09:16:55;3.95;;;3.70;;
10565;SDS011;5331;48.148;16.326;2023-07-16T09:19:25;4.00;;;3.70;;
10565;SDS011;5331;48.148;16.326;2023-07-16T09:21:52;3.72;;;3.53;;
10565;SDS011;5331;48.148;16.326;2023-07-16T09:24:19;4.72;;;3.45;;
10565;SDS011;5331;48.148;16.326;2023-07-16T09:26:51;3.80;;;3.60;;
10565;SDS011;5331;48.148;16.326;2023-07-16T09:29:19;3.60;;;3.40;;
10565;SDS011;5331;48.148;16.326;2023-07-16T09:31:53;4.70;;;3.40;;
10565;SDS011;5331;48.148;16.326;2023-07-16T09:34:21;3.63;;;3.33;;
10565;SDS011;5331;48.148;16.326;2023-07-16T09:36:48;3.80;;;3.45;;
10565;SDS011;5331;48.148;16.326;2023-07-16T09:39:15;3.75;;;3.47;;
10565;SDS011;5331;48.148;16.326;2023-07-16T09:41:44;3.83;;;3.53;;
10565;SDS011;5331;48.148;16.326;2023-07-16T09:44:13;3.40;;;3.20;;
10565;SDS011;5331;48.148;16.326;2023-07-16T09:46:40;4.35;;;3.95;;
10565;SDS011;5331;48.148;16.326;2023-07-16T09:49:07;4.32;;;3.75;;
10565;SDS011;5331;48.148;16.326;2023-07-16T09:51:35;3.90;;;3.55;;
10565;SDS011;5331;48.148;16.326;2023-07-16T09:54:03;3.47;;;3.20;;
10565;SDS011;5331;48.148;16.326;2023-07-16T09:56:32;4.00;;;3.70;;
10565;SDS011;5331;48.148;16.326;2023-07-16T09:59:02;4.10;;;3.80;;
10565;SDS011;5331;48.148;16.326;2023-07-16T10:01:36;4.00;;;3.70;;
10565;SDS011;5331;48.148;16.326;2023-07-16T10:04:11;3.83;;;3.53;;
10565;SDS011;5331;48.148;16.326;2023-07-16T10:06:49;4.30;;;3.90;;
10565;SDS011;5331;48.148;16.326;2023-07-16T10:09:36;3.65;;;3.45;;
10565;SDS011;5331;48.148;16.326;2023-07-16T10:12:11;3.80;;;3.45;;
10565;SDS011;5331;48.148;16.326;2023-07-16T10:14:43;3.70;;;3.40;;
10565;SDS011;5331;48.148;16.326;2023-07-16T10:17:16;3.90;;;3.70;;
10565;SDS011;5331;48.148;16.326;2023-07-16T10:19:50;4.10;;;3.80;;
10565;SDS011;5331;48.148;16.326;2023-07-16T10:22:31;3.67;;;3.35;;
10565;SDS011;5331;48.148;16.326;2023-07-16T10:25:00;4.45;;;4.00;;
10565;SDS011;5331;48.148;16.326;2023-07-16T10:27:28;4.35;;;4.00;;
10565;SDS011;5331;48.148;16.326;2023-07-16T10:29:56;4.32;;;4.00;;
10565;SDS011;5331;48.148;16.326;2023-07-16T10:32:27;4.00;;;3.60;;
10565;SDS011;5331;48.148;16.326;2023-07-16T10:34:55;4.75;;;4.35;;
10565;SDS011;5331;48.148;16.326;2023-07-16T10:37:22;17.45;;;13.63;;
10565;SDS011;5331;48.148;16.326;2023-07-16T10:39:50;38.78;;;26.48;;
10565;SDS011;5331;48.148;16.326;2023-07-16T10:42:18;17.63;;;14.32;;
10565;SDS011;5331;48.148;16.326;2023-07-16T10:44:48;5.38;;;4.93;;
10565;SDS011;5331;48.148;16.326;2023-07-16T10:47:20;4.60;;;4.30;;
10565;SDS011;5331;48.148;16.326;2023-07-16T10:49:50;5.75;;;4.15;;
10565;SDS011;5331;48.148;16.326;2023-07-16T10:52:19;3.75;;;3.55;;
10565;SDS011;5331;48.148;16.326;2023-07-16T10:54:46;4.38;;;4.07;;
10565;SDS011;5331;48.148;16.326;2023-07-16T10:57:13;4.45;;;4.15;;
10565;SDS011;5331;48.148;16.326;2023-07-16T10:59:42;4.72;;;4.43;;
10565;SDS011;5331;48.148;16.326;2023-07-16T11:02:11;4.30;;;3.90;;
10565;SDS011;5331;48.148;16.326;2023-07-16T11:04:39;6.55;;;5.95;;
10565;SDS011;5331;48.148;16.326;2023-07-16T11:07:08;4.15;;;3.85;;
10565;SDS011;5331;48.148;16.326;2023-07-16T11:09:40;4.32;;;3.92;;
10565;SDS011;5331;48.148;16.326;2023-07-16T11:12:09;6.63;;;5.40;;
10565;SDS011;5331;48.148;16.326;2023-07-16T11:14:37;7.05;;;4.55;;
10565;SDS011;5331;48.148;16.326;2023-07-16T11:17:05;4.28;;;3.97;;
10565;SDS011;5331;48.148;16.326;2023-07-16T11:19:33;4.22;;;3.60;;
10565;SDS011;5331;48.148;16.326;2023-07-16T11:22:01;3.88;;;3.50;;
10565;SDS011;5331;48.148;16.326;2023-07-16T11:24:37;3.72;;;3.53;;
10565;SDS011;5331;48.148;16.326;2023-07-16T11:27:05;3.55;;;3.33;;
10565;SDS011;5331;48.148;16.326;2023-07-16T11:29:38;3.70;;;3.50;;
10565;SDS011;5331;48.148;16.326;2023-07-16T11:32:07;4.15;;;3.40;;
10565;SDS011;5331;48.148;16.326;2023-07-16T11:34:35;3.60;;;3.33;;
10565;SDS011;5331;48.148;16.326;2023-07-16T11:37:09;3.70;;;3.50;;
10565;SDS011;5331;48.148;16.326;2023-07-16T11:39:38;3.67;;;3.45;;
10565;SDS011;5331;48.148;16.326;2023-07-16T11:42:05;3.80;;;3.60;;
10565;SDS011;5331;48.148;16.326;2023-07-16T11:44:33;3.95;;;3.65;;
10565;SDS011;5331;48.148;16.326;2023-07-16T11:47:00;3.80;;;3.50;;
10565;SDS011;5331;48.148;16.326;2023-07-16T11:49:28;3.72;;;3.53;;
10565;SDS011;5331;48.148;16.326;2023-07-16T11:51:55;4.28;;;3.90;;
10565;SDS011;5331;48.148;16.326;2023-07-16T11:54:23;4.10;;;3.80;;
10565;SDS011;5331;48.148;16.326;2023-07-16T11:56:51;4.00;;;3.70;;
10565;SDS011;5331;48.148;16.326;2023-07-16T11:59:18;3.80;;;3.60;;
10565;SDS011;5331;48.148;16.326;2023-07-16T12:01:46;3.78;;;3.53;;
10565;SDS011;5331;48.148;16.326;2023-07-16T12:04:14;4.25;;;3.78;;
10565;SDS011;5331;48.148;16.326;2023-07-16T12:06:41;3.50;;;3.30;;
10565;SDS011;5331;48.148;16.326;2023-07-16T12:09:08;3.83;;;3.53;;
10565;SDS011;5331;48.148;16.326;2023-07-16T12:11:35;3.50;;;3.30;;
10565;SDS011;5331;48.148;16.326;2023-07-16T12:14:04;4.20;;;3.60;;
10565;SDS011;5331;48.148;16.326;2023-07-16T12:16:31;3.70;;;3.40;;
10565;SDS011;5331;48.148;16.326;2023-07-16T12:18:58;3.60;;;3.40;;
10565;SDS011;5331;48.148;16.326;2023-07-16T12:21:25;3.88;;;3.58;;
10565;SDS011;5331;48.148;16.326;2023-07-16T12:23:52;3.67;;;3.40;;
10565;SDS011;5331;48.148;16.326;2023-07-16T12:26:19;5.15;;;3.63;;
10565;SDS011;5331;48.148;16.326;2023-07-16T12:28:46;3.80;;;3.60;;
10565;SDS011;5331;48.148;16.326;2023-07-16T12:31:14;3.70;;;3.50;;
10565;SDS011;5331;48.148;16.326;2023-07-16T12:33:41;3.95;;;3.75;;
10565;SDS011;5331;48.148;16.326;2023-07-16T12:36:08;3.88;;;3.67;;
10565;SDS011;5331;48.148;16.326;2023-07-16T12:38:35;3.60;;;3.40;;
10565;SDS011;5331;48.148;16.326;2023-07-16T12:41:02;3.58;;;3.38;;
10565;SDS011;5331;48.148;16.326;2023-07-16T12:43:29;3.80;;;3.50;;
10565;SDS011;5331;48.148;16.326;2023-07-16T12:45:59;3.75;;;3.50;;
10565;SDS011;5331;48.148;16.326;2023-07-16T12:48:27;3.45;;;3.25;;
10565;SDS011;5331;48.148;16.326;2023-07-16T12:50:54;4.00;;;3.78;;
10565;SDS011;5331;48.148;16.326;2023-07-16T12:53:21;3.63;;;3.33;;
10565;SDS011;5331;48.148;16.326;2023-07-16T12:55:48;3.90;;;3.60;;
10565;SDS011;5331;48.148;16.326;2023-07-16T12:58:15;3.47;;;3.28;;
10565;SDS011;5331;48.148;16.326;2023-07-16T13:00:42;3.78;;;3.47;;
10565;SDS011;5331;48.148;16.326;2023-07-16T13:03:10;3.30;;;3.20;;
10565;SDS011;5331;48.148;16.326;2023-07-16T13:05:43;4.30;;;3.65;;
10565;SDS011;5331;48.148;16.326;2023-07-16T13:08:12;3.42;;;3.22;;
10565;SDS011;5331;48.148;16.326;2023-07-16T13:10:40;3.65;;;3.45;;
10565;SDS011;5331;48.148;16.326;2023-07-16T13:13:08;3.40;;;3.10;;
10565;SDS011;5331;48.148;16.326;2023-07-16T13:15:36;3.70;;;3.50;;
10565;SDS011;5331;48.148;16.326;2023-07-16T13:18:03;3.63;;;3.30;;
10565;SDS011;5331;48.148;16.326;2023-07-16T13:20:31;3.75;;;3.45;;
10565;SDS011;5331;48.148;16.326;2023-07-16T13:23:01;3.50;;;3.20;;
10565;SDS011;5331;48.148;16.326;2023-07-16T13:25:30;3.60;;;3.40;;
10565;SDS011;5331;48.148;16.326;2023-07-16T13:27:58;3.58;;;3.28;;
10565;SDS011;5331;48.148;16.326;2023-07-16T13:30:27;3.80;;;3.50;;
10565;SDS011;5331;48.148;16.326;2023-07-16T13:32:55;3.72;;;3.42;;
10565;SDS011;5331;48.148;16.326;2023-07-16T13:35:24;3.40;;;3.20;;
10565;SDS011;5331;48.148;16.326;2023-07-16T13:37:52;3.25;;;3.05;;
10565;SDS011;5331;48.148;16.326;2023-07-16T13:40:22;3.70;;;3.50;;
10565;SDS011;5331;48.148;16.326;2023-07-16T13:42:51;4.00;;;3.67;;
10565;SDS011;5331;48.148;16.326;2023-07-16T13:45:19;3.63;;;3.38;;
10565;SDS011;5331;48.148;16.326;2023-07-16T13:47:48;3.78;;;3.35;;
10565;SDS011;5331;48.148;16.326;2023-07-16T13:50:18;3.30;;;3.10;;
10565;SDS011;5331;48.148;16.326;2023-07-16T13:52:46;3.38;;;3.17;;
10565;SDS011;5331;48.148;16.326;2023-07-16T13:55:16;3.53;;;3.08;;
10565;SDS011;5331;48.148;16.326;2023-07-16T13:57:46;3.33;;;3.13;;
10565;SDS011;5331;48.148;16.326;2023-07-16T14:00:14;3.10;;;2.90;;
10565;SDS011;5331;48.148;16.326;2023-07-16T14:02:43;3.15;;;3.05;;
10565;SDS011;5331;48.148;16.326;2023-07-16T14:05:12;3.50;;;3.20;;
10565;SDS011;5331;48.148;16.326;2023-07-16T14:07:41;3.45;;;3.25;;
10565;SDS011;5331;48.148;16.326;2023-07-16T14:10:09;3.38;;;3.08;;
10565;SDS011;5331;48.148;16.326;2023-07-16T14:12:38;3.40;;;3.20;;
10565;SDS011;5331;48.148;16.326;2023-07-16T14:15:08;3.40;;;3.10;;
10565;SDS011;5331;48.148;16.326;2023-07-16T14:17:37;3.17;;;3.03;;
10565;SDS011;5331;48.148;16.326;2023-07-16T14:20:06;3.20;;;2.90;;
10565;SDS011;5331;48.148;16.326;2023-07-16T14:22:35;3.15;;;3.05;;
10565;SDS011;5331;48.148;16.326;2023-07-16T14:25:04;3.20;;;3.10;;
10565;SDS011;5331;48.148;16.326;2023-07-16T14:27:34;3.10;;;3.00;;
10565;SDS011;5331;48.148;16.326;2023-07-16T14:30:03;3.97;;;3.33;;
10565;SDS011;5331;48.148;16.326;2023-07-16T14:32:34;3.10;;;2.90;;
10565;SDS011;5331;48.148;16.326;2023-07-16T14:35:03;3.40;;;3.20;;
10565;SDS011;5331;48.148;16.326;2023-07-16T14:37:32;3.55;;;2.88;;
10565;SDS011;5331;48.148;16.326;2023-07-16T14:40:01;3.60;;;3.30;;
10565;SDS011;5331;48.148;16.326;2023-07-16T14:42:31;2.90;;;2.80;;
10565;SDS011;5331;48.148;16.326;2023-07-16T14:44:59;3.10;;;2.97;;
10565;SDS011;5331;48.148;16.326;2023-07-16T14:47:30;3.40;;;3.20;;
10565;SDS011;5331;48.148;16.326;2023-07-16T14:50:00;3.20;;;3.10;;
10565;SDS011;5331;48.148;16.326;2023-07-16T14:52:29;3.15;;;2.85;;
10565;SDS011;5331;48.148;16.326;2023-07-16T14:54:57;2.90;;;2.80;;